Lopez Island, Washington
Current Conditions -  °F | °C
As of 4:53 AM on Tuesday 21 Oct 2014 (Local Time) from KFHR Reporting Station
Overcast Overcast  
Wind Chill: 52°   Ceiling: 500
Heat Index: 52°   Visibility: 10mi
Dew Point: 51°   Wind: 5mph
Humidity: 97%   Direction: 140°SE
Pressure: 29.79"   Gusts: NA
Location:  48.51°N, 122.91°W
Report Text: KFHR 211153Z AUTO 14004KT 10SM BKN005 OVC014 11/11 A2979 RMK AO2 SLP087 60000 T01110106 10117 20106 51003
Loading
Personal Weather Stations






























Interactive Weather Map
Tropical Storm Tracking
New forecast layout! Learn more

10-Day Weather Forecast

Advertisements
Track Severe Weather on mobile